sensor_id;sensor_type;location;lat;lon;timestamp;pressure;altitude;pressure_sealevel;temperature;humidity
22862;BME280;11598;50.652;6.172;2023-02-21T00:07:05;96925.44;;;4.43;100.00
22862;BME280;11598;50.652;6.172;2023-02-21T00:17:24;96924.81;;;4.38;100.00
22862;BME280;11598;50.652;6.172;2023-02-21T00:27:42;96936.41;;;4.28;100.00
22862;BME280;11598;50.652;6.172;2023-02-21T00:38:02;96934.06;;;4.22;100.00
22862;BME280;11598;50.652;6.172;2023-02-21T00:48:22;96929.84;;;4.21;100.00
22862;BME280;11598;50.652;6.172;2023-02-21T00:58:41;96908.16;;;4.27;100.00
22862;BME280;11598;50.652;6.172;2023-02-21T01:09:00;96909.75;;;4.29;100.00
22862;BME280;11598;50.652;6.172;2023-02-21T01:19:19;96907.25;;;4.28;100.00
22862;BME280;11598;50.652;6.172;2023-02-21T01:29:38;96909.38;;;4.18;100.00
22862;BME280;11598;50.652;6.172;2023-02-21T01:39:57;96893.22;;;3.94;100.00
22862;BME280;11598;50.652;6.172;2023-02-21T01:50:24;96895.94;;;3.69;100.00
22862;BME280;11598;50.652;6.172;2023-02-21T02:00:44;96900.00;;;3.52;100.00
22862;BME280;11598;50.652;6.172;2023-02-21T02:42:37;96888.47;;;2.96;100.00
22862;BME280;11598;50.652;6.172;2023-02-21T02:52:50;96876.84;;;2.86;100.00
22862;BME280;11598;50.652;6.172;2023-02-21T03:03:10;96864.31;;;2.79;100.00
22862;BME280;11598;50.652;6.172;2023-02-21T03:13:21;96858.06;;;2.62;100.00
22862;BME280;11598;50.652;6.172;2023-02-21T03:23:28;96848.09;;;2.54;100.00
22862;BME280;11598;50.652;6.172;2023-02-21T03:33:31;96838.78;;;2.52;100.00
22862;BME280;11598;50.652;6.172;2023-02-21T03:43:31;96843.84;;;2.53;100.00
22862;BME280;11598;50.652;6.172;2023-02-21T03:53:32;96845.44;;;2.56;100.00
22862;BME280;11598;50.652;6.172;2023-02-21T04:03:32;96835.88;;;2.61;100.00
22862;BME280;11598;50.652;6.172;2023-02-21T04:13:33;96839.13;;;2.66;100.00
22862;BME280;11598;50.652;6.172;2023-02-21T04:23:33;96824.56;;;2.67;100.00
22862;BME280;11598;50.652;6.172;2023-02-21T04:33:33;96825.38;;;2.67;100.00
22862;BME280;11598;50.652;6.172;2023-02-21T04:43:34;96812.50;;;2.69;100.00
22862;BME280;11598;50.652;6.172;2023-02-21T04:53:34;96808.25;;;2.68;100.00
22862;BME280;11598;50.652;6.172;2023-02-21T05:03:34;96799.59;;;2.70;100.00
22862;BME280;11598;50.652;6.172;2023-02-21T05:13:35;96795.22;;;2.74;100.00
22862;BME280;11598;50.652;6.172;2023-02-21T05:23:35;96798.38;;;2.81;100.00
22862;BME280;11598;50.652;6.172;2023-02-21T05:33:39;96802.44;;;2.86;100.00
22862;BME280;11598;50.652;6.172;2023-02-21T05:43:39;96801.47;;;2.89;100.00
22862;BME280;11598;50.652;6.172;2023-02-21T05:53:39;96793.00;;;2.87;100.00
22862;BME280;11598;50.652;6.172;2023-02-21T06:03:40;96799.81;;;2.88;100.00
22862;BME280;11598;50.652;6.172;2023-02-21T06:13:41;96792.66;;;2.96;100.00
22862;BME280;11598;50.652;6.172;2023-02-21T06:23:41;96793.25;;;3.03;100.00
22862;BME280;11598;50.652;6.172;2023-02-21T06:44:03;96784.84;;;2.99;100.00
22862;BME280;11598;50.652;6.172;2023-02-21T06:54:03;96793.97;;;3.06;100.00
22862;BME280;11598;50.652;6.172;2023-02-21T07:04:04;96806.19;;;3.22;100.00
22862;BME280;11598;50.652;6.172;2023-02-21T07:14:04;96806.03;;;3.26;100.00
22862;BME280;11598;50.652;6.172;2023-02-21T07:24:05;96797.34;;;3.71;100.00
22862;BME280;11598;50.652;6.172;2023-02-21T07:34:05;96795.03;;;5.20;100.00
22862;BME280;11598;50.652;6.172;2023-02-21T07:44:06;96795.06;;;4.63;100.00
22862;BME280;11598;50.652;6.172;2023-02-21T07:54:07;96795.94;;;4.44;100.00
22862;BME280;11598;50.652;6.172;2023-02-21T08:04:07;96812.22;;;4.24;100.00
22862;BME280;11598;50.652;6.172;2023-02-21T08:14:07;96805.88;;;3.92;100.00
22862;BME280;11598;50.652;6.172;2023-02-21T08:24:09;96802.63;;;4.09;100.00
22862;BME280;11598;50.652;6.172;2023-02-21T08:34:11;96801.34;;;4.38;100.00
22862;BME280;11598;50.652;6.172;2023-02-21T08:44:14;96808.44;;;4.52;100.00
22862;BME280;11598;50.652;6.172;2023-02-21T08:54:15;96790.09;;;4.60;100.00
22862;BME280;11598;50.652;6.172;2023-02-21T09:04:15;96784.78;;;4.82;100.00
22862;BME280;11598;50.652;6.172;2023-02-21T09:14:16;96786.50;;;5.00;100.00
22862;BME280;11598;50.652;6.172;2023-02-21T09:24:16;96772.16;;;5.14;100.00
22862;BME280;11598;50.652;6.172;2023-02-21T09:34:17;96767.38;;;5.41;100.00
22862;BME280;11598;50.652;6.172;2023-02-21T09:44:22;96767.78;;;5.68;100.00
22862;BME280;11598;50.652;6.172;2023-02-21T09:54:36;96760.88;;;6.03;100.00
22862;BME280;11598;50.652;6.172;2023-02-21T10:04:58;96764.34;;;6.20;100.00
22862;BME280;11598;50.652;6.172;2023-02-21T10:25:25;96749.88;;;6.49;100.00
22862;BME280;11598;50.652;6.172;2023-02-21T10:35:28;96737.06;;;6.79;100.00
22862;BME280;11598;50.652;6.172;2023-02-21T10:45:41;96741.91;;;7.31;100.00
22862;BME280;11598;50.652;6.172;2023-02-21T10:55:44;96742.25;;;7.86;100.00
22862;BME280;11598;50.652;6.172;2023-02-21T11:05:54;96739.97;;;8.24;100.00
22862;BME280;11598;50.652;6.172;2023-02-21T11:26:10;96724.41;;;8.67;100.00
22862;BME280;11598;50.652;6.172;2023-02-21T11:36:14;96711.53;;;8.80;100.00
22862;BME280;11598;50.652;6.172;2023-02-21T11:46:20;96700.81;;;8.99;100.00
22862;BME280;11598;50.652;6.172;2023-02-21T12:06:53;96680.97;;;9.25;94.32
22862;BME280;11598;50.652;6.172;2023-02-21T12:18:16;96677.19;;;9.43;93.39
22862;BME280;11598;50.652;6.172;2023-02-21T12:48:09;96650.50;;;10.05;87.25
22862;BME280;11598;50.652;6.172;2023-02-21T13:08:28;96639.88;;;10.21;87.50
22862;BME280;11598;50.652;6.172;2023-02-21T13:18:41;96620.63;;;10.36;86.92
22862;BME280;11598;50.652;6.172;2023-02-21T13:28:43;96607.22;;;10.43;86.01
22862;BME280;11598;50.652;6.172;2023-02-21T13:38:46;96592.19;;;10.59;83.92
22862;BME280;11598;50.652;6.172;2023-02-21T13:59:34;96578.44;;;10.46;83.94
22862;BME280;11598;50.652;6.172;2023-02-21T14:09:38;96574.72;;;10.37;84.68
22862;BME280;11598;50.652;6.172;2023-02-21T14:50:12;96563.94;;;9.93;85.11
22862;BME280;11598;50.652;6.172;2023-02-21T15:00:27;96559.38;;;9.84;84.67
22862;BME280;11598;50.652;6.172;2023-02-21T15:10:39;96564.28;;;9.76;85.00
22862;BME280;11598;50.652;6.172;2023-02-21T15:20:41;96574.56;;;9.65;86.32
22862;BME280;11598;50.652;6.172;2023-02-21T15:30:55;96566.69;;;9.53;88.64
22862;BME280;11598;50.652;6.172;2023-02-21T15:41:48;96565.47;;;9.46;90.81
22862;BME280;11598;50.652;6.172;2023-02-21T15:51:23;96560.91;;;9.24;92.63
22862;BME280;11598;50.652;6.172;2023-02-21T16:01:24;96552.06;;;9.01;94.07
22862;BME280;11598;50.652;6.172;2023-02-21T16:21:48;96550.69;;;8.43;96.78
22862;BME280;11598;50.652;6.172;2023-02-21T16:31:50;96557.06;;;8.10;98.18
22862;BME280;11598;50.652;6.172;2023-02-21T16:41:50;96548.81;;;7.76;99.32
22862;BME280;11598;50.652;6.172;2023-02-21T16:51:52;96555.19;;;7.42;100.00
22862;BME280;11598;50.652;6.172;2023-02-21T17:01:52;96550.63;;;7.03;100.00
22862;BME280;11598;50.652;6.172;2023-02-21T17:11:53;96540.78;;;6.65;100.00
22862;BME280;11598;50.652;6.172;2023-02-21T17:21:53;96542.34;;;6.37;100.00
22862;BME280;11598;50.652;6.172;2023-02-21T17:31:57;96539.81;;;6.05;100.00
22862;BME280;11598;50.652;6.172;2023-02-21T17:41:57;96547.13;;;5.81;100.00
22862;BME280;11598;50.652;6.172;2023-02-21T17:51:58;96549.00;;;5.62;100.00
22862;BME280;11598;50.652;6.172;2023-02-21T18:01:58;96545.50;;;5.47;100.00
22862;BME280;11598;50.652;6.172;2023-02-21T18:11:59;96554.88;;;5.32;100.00
22862;BME280;11598;50.652;6.172;2023-02-21T18:21:59;96550.84;;;5.26;100.00
22862;BME280;11598;50.652;6.172;2023-02-21T18:32:04;96548.59;;;5.20;100.00
22862;BME280;11598;50.652;6.172;2023-02-21T18:42:04;96535.28;;;5.12;100.00
22862;BME280;11598;50.652;6.172;2023-02-21T19:02:10;96529.63;;;4.88;100.00
22862;BME280;11598;50.652;6.172;2023-02-21T19:12:11;96520.19;;;4.71;100.00
22862;BME280;11598;50.652;6.172;2023-02-21T19:22:11;96515.13;;;4.52;100.00
22862;BME280;11598;50.652;6.172;2023-02-21T19:32:12;96516.69;;;4.37;100.00
22862;BME280;11598;50.652;6.172;2023-02-21T19:42:13;96509.22;;;4.33;100.00
22862;BME280;11598;50.652;6.172;2023-02-21T19:52:13;96500.81;;;4.29;100.00
22862;BME280;11598;50.652;6.172;2023-02-21T20:02:14;96501.81;;;4.27;100.00
22862;BME280;11598;50.652;6.172;2023-02-21T20:12:15;96503.22;;;4.15;100.00
22862;BME280;11598;50.652;6.172;2023-02-21T20:22:18;96503.59;;;4.07;100.00
22862;BME280;11598;50.652;6.172;2023-02-21T20:32:18;96494.31;;;4.05;100.00
22862;BME280;11598;50.652;6.172;2023-02-21T20:42:18;96493.38;;;4.06;100.00
22862;BME280;11598;50.652;6.172;2023-02-21T20:52:21;96482.06;;;4.10;100.00
22862;BME280;11598;50.652;6.172;2023-02-21T21:02:22;96466.53;;;4.11;100.00
22862;BME280;11598;50.652;6.172;2023-02-21T21:12:23;96470.09;;;4.09;100.00
22862;BME280;11598;50.652;6.172;2023-02-21T21:22:25;96462.81;;;3.99;100.00
22862;BME280;11598;50.652;6.172;2023-02-21T21:32:26;96450.41;;;3.90;100.00
22862;BME280;11598;50.652;6.172;2023-02-21T21:42:28;96439.75;;;3.80;100.00
22862;BME280;11598;50.652;6.172;2023-02-21T21:52:28;96427.25;;;3.73;100.00
22862;BME280;11598;50.652;6.172;2023-02-21T22:02:29;96416.22;;;3.71;100.00
22862;BME280;11598;50.652;6.172;2023-02-21T22:12:29;96407.63;;;3.72;100.00
22862;BME280;11598;50.652;6.172;2023-02-21T22:22:29;96391.44;;;3.70;100.00
22862;BME280;11598;50.652;6.172;2023-02-21T22:32:30;96379.25;;;3.73;100.00
22862;BME280;11598;50.652;6.172;2023-02-21T22:42:30;96374.94;;;3.74;100.00
22862;BME280;11598;50.652;6.172;2023-02-21T22:52:30;96355.38;;;3.71;100.00
22862;BME280;11598;50.652;6.172;2023-02-21T23:02:34;96349.72;;;3.65;100.00
22862;BME280;11598;50.652;6.172;2023-02-21T23:12:35;96341.16;;;3.64;100.00
22862;BME280;11598;50.652;6.172;2023-02-21T23:22:36;96328.09;;;3.69;100.00
22862;BME280;11598;50.652;6.172;2023-02-21T23:32:37;96331.22;;;3.75;100.00
22862;BME280;11598;50.652;6.172;2023-02-21T23:42:37;96322.22;;;3.84;100.00
22862;BME280;11598;50.652;6.172;2023-02-21T23:52:39;96325.31;;;3.91;100.00
